sensor_id;sensor_type;location;lat;lon;timestamp;P1;durP1;ratioP1;P2;durP2;ratioP2
44588;SDS011;30298;52.562;13.414;2022-12-07T00:01:09;14.07;;;8.18;;
44588;SDS011;30298;52.562;13.414;2022-12-07T00:03:35;20.88;;;9.90;;
44588;SDS011;30298;52.562;13.414;2022-12-07T00:06:02;19.27;;;9.45;;
44588;SDS011;30298;52.562;13.414;2022-12-07T00:08:28;16.15;;;8.85;;
44588;SDS011;30298;52.562;13.414;2022-12-07T00:10:53;14.50;;;7.70;;
44588;SDS011;30298;52.562;13.414;2022-12-07T00:13:18;13.67;;;7.20;;
44588;SDS011;30298;52.562;13.414;2022-12-07T00:15:44;14.33;;;8.07;;
44588;SDS011;30298;52.562;13.414;2022-12-07T00:18:09;15.70;;;8.95;;
44588;SDS011;30298;52.562;13.414;2022-12-07T00:20:34;15.67;;;8.13;;
44588;SDS011;30298;52.562;13.414;2022-12-07T00:22:59;14.83;;;8.10;;
44588;SDS011;30298;52.562;13.414;2022-12-07T00:25:25;18.47;;;9.23;;
44588;SDS011;30298;52.562;13.414;2022-12-07T00:27:51;14.07;;;7.70;;
44588;SDS011;30298;52.562;13.414;2022-12-07T00:30:17;15.68;;;8.43;;
44588;SDS011;30298;52.562;13.414;2022-12-07T00:32:42;16.50;;;7.90;;
44588;SDS011;30298;52.562;13.414;2022-12-07T00:35:08;16.00;;;8.40;;
44588;SDS011;30298;52.562;13.414;2022-12-07T00:37:33;17.07;;;9.10;;
44588;SDS011;30298;52.562;13.414;2022-12-07T00:39:58;16.87;;;8.33;;
44588;SDS011;30298;52.562;13.414;2022-12-07T00:42:23;16.33;;;7.80;;
44588;SDS011;30298;52.562;13.414;2022-12-07T00:44:49;15.53;;;8.47;;
44588;SDS011;30298;52.562;13.414;2022-12-07T00:47:14;19.57;;;9.57;;
44588;SDS011;30298;52.562;13.414;2022-12-07T00:49:39;16.47;;;9.10;;
44588;SDS011;30298;52.562;13.414;2022-12-07T00:52:04;17.90;;;9.10;;
44588;SDS011;30298;52.562;13.414;2022-12-07T00:54:30;16.40;;;9.67;;
44588;SDS011;30298;52.562;13.414;2022-12-07T00:56:55;16.97;;;9.13;;
44588;SDS011;30298;52.562;13.414;2022-12-07T00:59:20;16.53;;;8.63;;
44588;SDS011;30298;52.562;13.414;2022-12-07T01:01:45;13.50;;;7.70;;
44588;SDS011;30298;52.562;13.414;2022-12-07T01:04:11;18.50;;;8.80;;
44588;SDS011;30298;52.562;13.414;2022-12-07T01:06:36;15.23;;;8.17;;
44588;SDS011;30298;52.562;13.414;2022-12-07T01:09:02;17.47;;;9.20;;
44588;SDS011;30298;52.562;13.414;2022-12-07T01:11:28;18.30;;;9.55;;
44588;SDS011;30298;52.562;13.414;2022-12-07T01:13:54;17.50;;;9.23;;
44588;SDS011;30298;52.562;13.414;2022-12-07T01:16:20;14.57;;;8.68;;
44588;SDS011;30298;52.562;13.414;2022-12-07T01:18:47;15.43;;;8.43;;
44588;SDS011;30298;52.562;13.414;2022-12-07T01:21:13;26.67;;;10.40;;
44588;SDS011;30298;52.562;13.414;2022-12-07T01:23:39;18.50;;;9.70;;
44588;SDS011;30298;52.562;13.414;2022-12-07T01:26:06;15.32;;;8.52;;
44588;SDS011;30298;52.562;13.414;2022-12-07T01:28:31;16.02;;;9.25;;
44588;SDS011;30298;52.562;13.414;2022-12-07T01:31:07;16.37;;;8.10;;
44588;SDS011;30298;52.562;13.414;2022-12-07T01:33:34;14.82;;;8.88;;
44588;SDS011;30298;52.562;13.414;2022-12-07T01:36:03;15.40;;;8.38;;
44588;SDS011;30298;52.562;13.414;2022-12-07T01:38:29;14.13;;;8.55;;
44588;SDS011;30298;52.562;13.414;2022-12-07T01:40:55;12.18;;;6.93;;
44588;SDS011;30298;52.562;13.414;2022-12-07T01:43:20;12.05;;;7.45;;
44588;SDS011;30298;52.562;13.414;2022-12-07T01:45:47;12.57;;;7.30;;
44588;SDS011;30298;52.562;13.414;2022-12-07T01:48:13;13.80;;;7.90;;
44588;SDS011;30298;52.562;13.414;2022-12-07T01:50:39;14.48;;;8.02;;
44588;SDS011;30298;52.562;13.414;2022-12-07T01:53:06;12.55;;;8.43;;
44588;SDS011;30298;52.562;13.414;2022-12-07T01:55:34;14.10;;;8.27;;
44588;SDS011;30298;52.562;13.414;2022-12-07T01:58:02;11.20;;;6.57;;
44588;SDS011;30298;52.562;13.414;2022-12-07T02:00:28;12.70;;;6.97;;
44588;SDS011;30298;52.562;13.414;2022-12-07T02:02:55;11.90;;;7.53;;
44588;SDS011;30298;52.562;13.414;2022-12-07T02:05:23;10.85;;;6.00;;
44588;SDS011;30298;52.562;13.414;2022-12-07T02:07:49;11.93;;;6.88;;
44588;SDS011;30298;52.562;13.414;2022-12-07T02:10:22;11.38;;;6.10;;
44588;SDS011;30298;52.562;13.414;2022-12-07T02:12:53;10.85;;;7.00;;
44588;SDS011;30298;52.562;13.414;2022-12-07T02:15:20;11.88;;;6.30;;
44588;SDS011;30298;52.562;13.414;2022-12-07T02:17:52;11.45;;;6.78;;
44588;SDS011;30298;52.562;13.414;2022-12-07T02:29:02;12.07;;;5.90;;
44588;SDS011;30298;52.562;13.414;2022-12-07T02:31:30;8.95;;;5.97;;
44588;SDS011;30298;52.562;13.414;2022-12-07T02:33:58;10.50;;;5.40;;
44588;SDS011;30298;52.562;13.414;2022-12-07T02:36:29;9.40;;;6.18;;
44588;SDS011;30298;52.562;13.414;2022-12-07T02:39:15;10.57;;;6.05;;
44588;SDS011;30298;52.562;13.414;2022-12-07T02:41:47;9.63;;;6.00;;
44588;SDS011;30298;52.562;13.414;2022-12-07T02:44:14;10.20;;;6.45;;
44588;SDS011;30298;52.562;13.414;2022-12-07T02:46:46;9.90;;;5.90;;
44588;SDS011;30298;52.562;13.414;2022-12-07T02:49:13;10.30;;;6.72;;
44588;SDS011;30298;52.562;13.414;2022-12-07T02:51:39;11.95;;;6.85;;
44588;SDS011;30298;52.562;13.414;2022-12-07T02:56:37;13.40;;;7.63;;
44588;SDS011;30298;52.562;13.414;2022-12-07T03:10:05;15.23;;;7.95;;
44588;SDS011;30298;52.562;13.414;2022-12-07T03:15:12;15.88;;;7.80;;
44588;SDS011;30298;52.562;13.414;2022-12-07T03:17:40;20.75;;;9.23;;
44588;SDS011;30298;52.562;13.414;2022-12-07T03:20:07;16.95;;;9.00;;
44588;SDS011;30298;52.562;13.414;2022-12-07T03:22:34;19.60;;;8.23;;
44588;SDS011;30298;52.562;13.414;2022-12-07T03:27:30;16.25;;;9.10;;
44588;SDS011;30298;52.562;13.414;2022-12-07T03:30:02;15.48;;;8.85;;
44588;SDS011;30298;52.562;13.414;2022-12-07T03:35:03;18.30;;;10.10;;
44588;SDS011;30298;52.562;13.414;2022-12-07T03:42:34;19.42;;;9.65;;
44588;SDS011;30298;52.562;13.414;2022-12-07T03:45:00;17.80;;;9.10;;
44588;SDS011;30298;52.562;13.414;2022-12-07T03:49:53;19.30;;;9.50;;
44588;SDS011;30298;52.562;13.414;2022-12-07T03:55:08;20.15;;;9.68;;
44588;SDS011;30298;52.562;13.414;2022-12-07T03:57:35;18.30;;;9.27;;
44588;SDS011;30298;52.562;13.414;2022-12-07T04:00:00;22.17;;;11.05;;
44588;SDS011;30298;52.562;13.414;2022-12-07T04:02:27;20.33;;;10.30;;
44588;SDS011;30298;52.562;13.414;2022-12-07T04:04:53;23.48;;;11.07;;
44588;SDS011;30298;52.562;13.414;2022-12-07T04:07:18;17.10;;;8.83;;
44588;SDS011;30298;52.562;13.414;2022-12-07T04:09:43;22.73;;;11.13;;
44588;SDS011;30298;52.562;13.414;2022-12-07T04:12:08;22.73;;;10.57;;
44588;SDS011;30298;52.562;13.414;2022-12-07T04:14:34;23.90;;;10.77;;
44588;SDS011;30298;52.562;13.414;2022-12-07T04:16:59;18.23;;;10.13;;
44588;SDS011;30298;52.562;13.414;2022-12-07T04:19:28;25.50;;;9.73;;
44588;SDS011;30298;52.562;13.414;2022-12-07T04:21:54;22.35;;;11.82;;
44588;SDS011;30298;52.562;13.414;2022-12-07T04:24:20;18.60;;;9.50;;
44588;SDS011;30298;52.562;13.414;2022-12-07T04:26:45;21.67;;;12.27;;
44588;SDS011;30298;52.562;13.414;2022-12-07T04:29:11;23.20;;;11.88;;
44588;SDS011;30298;52.562;13.414;2022-12-07T04:31:36;20.53;;;10.57;;
44588;SDS011;30298;52.562;13.414;2022-12-07T04:34:02;22.83;;;10.95;;
44588;SDS011;30298;52.562;13.414;2022-12-07T04:36:27;23.50;;;11.83;;
44588;SDS011;30298;52.562;13.414;2022-12-07T04:38:53;22.90;;;11.87;;
44588;SDS011;30298;52.562;13.414;2022-12-07T04:41:19;21.90;;;11.15;;
44588;SDS011;30298;52.562;13.414;2022-12-07T04:43:44;23.73;;;11.67;;
44588;SDS011;30298;52.562;13.414;2022-12-07T04:46:09;22.83;;;11.10;;
44588;SDS011;30298;52.562;13.414;2022-12-07T04:48:35;24.42;;;12.73;;
44588;SDS011;30298;52.562;13.414;2022-12-07T04:51:01;24.10;;;12.13;;
44588;SDS011;30298;52.562;13.414;2022-12-07T04:53:27;24.83;;;12.32;;
44588;SDS011;30298;52.562;13.414;2022-12-07T04:55:52;26.67;;;13.13;;
44588;SDS011;30298;52.562;13.414;2022-12-07T04:58:17;32.30;;;13.57;;
44588;SDS011;30298;52.562;13.414;2022-12-07T05:00:42;26.40;;;12.97;;
44588;SDS011;30298;52.562;13.414;2022-12-07T05:03:08;30.73;;;14.57;;
44588;SDS011;30298;52.562;13.414;2022-12-07T05:05:33;32.07;;;14.57;;
44588;SDS011;30298;52.562;13.414;2022-12-07T05:07:58;28.67;;;14.17;;
44588;SDS011;30298;52.562;13.414;2022-12-07T05:10:23;23.23;;;12.97;;
44588;SDS011;30298;52.562;13.414;2022-12-07T05:12:49;31.90;;;16.30;;
44588;SDS011;30298;52.562;13.414;2022-12-07T05:15:14;28.13;;;14.10;;
44588;SDS011;30298;52.562;13.414;2022-12-07T05:17:40;35.10;;;15.07;;
44588;SDS011;30298;52.562;13.414;2022-12-07T05:20:05;31.45;;;15.27;;
44588;SDS011;30298;52.562;13.414;2022-12-07T05:22:31;35.72;;;15.98;;
44588;SDS011;30298;52.562;13.414;2022-12-07T05:24:56;35.57;;;17.57;;
44588;SDS011;30298;52.562;13.414;2022-12-07T05:27:22;35.77;;;16.63;;
44588;SDS011;30298;52.562;13.414;2022-12-07T05:29:47;38.28;;;16.95;;
44588;SDS011;30298;52.562;13.414;2022-12-07T05:32:14;33.55;;;16.20;;
44588;SDS011;30298;52.562;13.414;2022-12-07T05:34:39;40.97;;;17.47;;
44588;SDS011;30298;52.562;13.414;2022-12-07T05:37:04;33.43;;;15.57;;
44588;SDS011;30298;52.562;13.414;2022-12-07T05:39:30;38.83;;;17.43;;
44588;SDS011;30298;52.562;13.414;2022-12-07T05:41:55;31.20;;;14.47;;
44588;SDS011;30298;52.562;13.414;2022-12-07T05:44:43;37.55;;;15.02;;
44588;SDS011;30298;52.562;13.414;2022-12-07T05:47:09;39.10;;;19.08;;
44588;SDS011;30298;52.562;13.414;2022-12-07T05:49:34;34.83;;;17.02;;
44588;SDS011;30298;52.562;13.414;2022-12-07T05:51:59;32.57;;;15.37;;
44588;SDS011;30298;52.562;13.414;2022-12-07T05:54:24;37.60;;;16.47;;
44588;SDS011;30298;52.562;13.414;2022-12-07T05:56:50;33.23;;;15.67;;
44588;SDS011;30298;52.562;13.414;2022-12-07T05:59:15;40.20;;;16.73;;
44588;SDS011;30298;52.562;13.414;2022-12-07T06:02:00;33.90;;;15.32;;
44588;SDS011;30298;52.562;13.414;2022-12-07T06:04:27;33.22;;;16.63;;
44588;SDS011;30298;52.562;13.414;2022-12-07T06:06:53;38.88;;;18.40;;
44588;SDS011;30298;52.562;13.414;2022-12-07T06:09:19;39.57;;;19.77;;
44588;SDS011;30298;52.562;13.414;2022-12-07T06:11:44;42.17;;;18.63;;
44588;SDS011;30298;52.562;13.414;2022-12-07T06:14:28;42.58;;;18.35;;
44588;SDS011;30298;52.562;13.414;2022-12-07T06:16:53;35.90;;;15.57;;
44588;SDS011;30298;52.562;13.414;2022-12-07T06:19:19;27.87;;;13.53;;
44588;SDS011;30298;52.562;13.414;2022-12-07T06:21:44;35.60;;;15.90;;
44588;SDS011;30298;52.562;13.414;2022-12-07T06:24:12;41.77;;;17.67;;
44588;SDS011;30298;52.562;13.414;2022-12-07T06:26:38;43.75;;;17.55;;
44588;SDS011;30298;52.562;13.414;2022-12-07T06:29:04;45.67;;;18.92;;
44588;SDS011;30298;52.562;13.414;2022-12-07T06:31:29;36.60;;;15.07;;
44588;SDS011;30298;52.562;13.414;2022-12-07T06:34:02;35.93;;;14.83;;
44588;SDS011;30298;52.562;13.414;2022-12-07T06:36:28;35.78;;;16.40;;
44588;SDS011;30298;52.562;13.414;2022-12-07T06:38:53;41.20;;;18.58;;
44588;SDS011;30298;52.562;13.414;2022-12-07T06:41:19;38.88;;;17.10;;
44588;SDS011;30298;52.562;13.414;2022-12-07T06:43:44;33.73;;;16.10;;
44588;SDS011;30298;52.562;13.414;2022-12-07T06:46:09;42.07;;;17.17;;
44588;SDS011;30298;52.562;13.414;2022-12-07T06:48:35;40.57;;;18.70;;
44588;SDS011;30298;52.562;13.414;2022-12-07T06:51:00;40.97;;;17.27;;
44588;SDS011;30298;52.562;13.414;2022-12-07T06:53:25;33.73;;;13.80;;
44588;SDS011;30298;52.562;13.414;2022-12-07T06:55:50;38.93;;;17.73;;
44588;SDS011;30298;52.562;13.414;2022-12-07T06:58:16;39.80;;;16.70;;
44588;SDS011;30298;52.562;13.414;2022-12-07T07:00:42;38.67;;;18.55;;
44588;SDS011;30298;52.562;13.414;2022-12-07T07:03:07;41.05;;;17.42;;
44588;SDS011;30298;52.562;13.414;2022-12-07T07:05:33;40.47;;;17.07;;
44588;SDS011;30298;52.562;13.414;2022-12-07T07:07:58;39.47;;;15.93;;
44588;SDS011;30298;52.562;13.414;2022-12-07T07:10:23;35.47;;;14.77;;
44588;SDS011;30298;52.562;13.414;2022-12-07T07:12:49;39.53;;;15.63;;
44588;SDS011;30298;52.562;13.414;2022-12-07T07:15:14;44.33;;;18.77;;
44588;SDS011;30298;52.562;13.414;2022-12-07T07:17:39;47.63;;;18.53;;
44588;SDS011;30298;52.562;13.414;2022-12-07T07:20:05;34.40;;;13.40;;
44588;SDS011;30298;52.562;13.414;2022-12-07T07:22:30;41.28;;;15.45;;
44588;SDS011;30298;52.562;13.414;2022-12-07T07:24:55;36.70;;;14.33;;
44588;SDS011;30298;52.562;13.414;2022-12-07T07:27:21;34.37;;;14.67;;
44588;SDS011;30298;52.562;13.414;2022-12-07T07:29:46;36.47;;;15.63;;
44588;SDS011;30298;52.562;13.414;2022-12-07T07:32:11;37.47;;;16.15;;
44588;SDS011;30298;52.562;13.414;2022-12-07T07:34:37;34.10;;;16.17;;
44588;SDS011;30298;52.562;13.414;2022-12-07T07:37:02;39.07;;;16.70;;
44588;SDS011;30298;52.562;13.414;2022-12-07T07:39:28;38.75;;;16.88;;
44588;SDS011;30298;52.562;13.414;2022-12-07T07:41:53;36.57;;;15.33;;
44588;SDS011;30298;52.562;13.414;2022-12-07T07:44:18;25.03;;;12.13;;
44588;SDS011;30298;52.562;13.414;2022-12-07T07:46:43;32.77;;;14.23;;
44588;SDS011;30298;52.562;13.414;2022-12-07T07:49:09;27.00;;;13.10;;
44588;SDS011;30298;52.562;13.414;2022-12-07T07:51:35;29.73;;;12.60;;
44588;SDS011;30298;52.562;13.414;2022-12-07T07:54:00;25.07;;;12.03;;
44588;SDS011;30298;52.562;13.414;2022-12-07T07:56:25;27.27;;;12.57;;
44588;SDS011;30298;52.562;13.414;2022-12-07T07:58:51;32.13;;;12.40;;
44588;SDS011;30298;52.562;13.414;2022-12-07T08:01:17;22.85;;;10.38;;
44588;SDS011;30298;52.562;13.414;2022-12-07T08:03:44;20.23;;;9.43;;
44588;SDS011;30298;52.562;13.414;2022-12-07T08:06:10;22.48;;;9.57;;
44588;SDS011;30298;52.562;13.414;2022-12-07T08:08:36;13.98;;;7.20;;
44588;SDS011;30298;52.562;13.414;2022-12-07T08:11:04;14.60;;;8.03;;
44588;SDS011;30298;52.562;13.414;2022-12-07T08:13:30;12.20;;;6.88;;
44588;SDS011;30298;52.562;13.414;2022-12-07T08:15:55;16.60;;;8.93;;
44588;SDS011;30298;52.562;13.414;2022-12-07T08:18:20;15.37;;;8.57;;
44588;SDS011;30298;52.562;13.414;2022-12-07T08:20:46;15.50;;;9.17;;
44588;SDS011;30298;52.562;13.414;2022-12-07T08:23:11;11.83;;;7.03;;
44588;SDS011;30298;52.562;13.414;2022-12-07T08:25:36;11.10;;;7.20;;
44588;SDS011;30298;52.562;13.414;2022-12-07T08:28:02;10.32;;;6.25;;
44588;SDS011;30298;52.562;13.414;2022-12-07T08:30:28;7.63;;;5.43;;
44588;SDS011;30298;52.562;13.414;2022-12-07T08:32:55;10.40;;;6.30;;
44588;SDS011;30298;52.562;13.414;2022-12-07T08:35:20;12.73;;;6.47;;
44588;SDS011;30298;52.562;13.414;2022-12-07T08:37:46;9.10;;;5.50;;
44588;SDS011;30298;52.562;13.414;2022-12-07T08:40:11;10.47;;;6.33;;
44588;SDS011;30298;52.562;13.414;2022-12-07T08:42:40;9.43;;;5.40;;
44588;SDS011;30298;52.562;13.414;2022-12-07T08:45:07;9.15;;;6.43;;
44588;SDS011;30298;52.562;13.414;2022-12-07T08:47:33;7.60;;;5.32;;
44588;SDS011;30298;52.562;13.414;2022-12-07T08:49:59;8.13;;;5.80;;
44588;SDS011;30298;52.562;13.414;2022-12-07T08:52:28;7.80;;;5.40;;
44588;SDS011;30298;52.562;13.414;2022-12-07T08:54:55;11.18;;;5.50;;
44588;SDS011;30298;52.562;13.414;2022-12-07T08:57:20;8.18;;;5.00;;
44588;SDS011;30298;52.562;13.414;2022-12-07T08:59:46;8.53;;;4.97;;
44588;SDS011;30298;52.562;13.414;2022-12-07T09:02:11;7.60;;;4.43;;
44588;SDS011;30298;52.562;13.414;2022-12-07T09:04:36;5.30;;;3.83;;
44588;SDS011;30298;52.562;13.414;2022-12-07T09:07:02;8.20;;;4.60;;
44588;SDS011;30298;52.562;13.414;2022-12-07T09:09:27;4.17;;;3.57;;
44588;SDS011;30298;52.562;13.414;2022-12-07T09:11:52;5.60;;;4.10;;
44588;SDS011;30298;52.562;13.414;2022-12-07T09:14:17;5.90;;;4.43;;
44588;SDS011;30298;52.562;13.414;2022-12-07T09:16:43;4.60;;;3.85;;
44588;SDS011;30298;52.562;13.414;2022-12-07T09:19:09;5.53;;;3.17;;
44588;SDS011;30298;52.562;13.414;2022-12-07T09:21:34;3.27;;;2.80;;
44588;SDS011;30298;52.562;13.414;2022-12-07T09:23:59;4.83;;;3.53;;
44588;SDS011;30298;52.562;13.414;2022-12-07T09:26:25;4.47;;;3.53;;
44588;SDS011;30298;52.562;13.414;2022-12-07T09:28:51;2.63;;;2.28;;
44588;SDS011;30298;52.562;13.414;2022-12-07T09:31:16;3.13;;;2.83;;
44588;SDS011;30298;52.562;13.414;2022-12-07T09:33:41;4.43;;;2.70;;
44588;SDS011;30298;52.562;13.414;2022-12-07T09:36:06;3.57;;;2.50;;
44588;SDS011;30298;52.562;13.414;2022-12-07T09:38:32;5.33;;;3.23;;
44588;SDS011;30298;52.562;13.414;2022-12-07T09:40:57;4.17;;;3.17;;
44588;SDS011;30298;52.562;13.414;2022-12-07T09:43:28;4.47;;;3.10;;
44588;SDS011;30298;52.562;13.414;2022-12-07T09:45:54;5.63;;;3.70;;
44588;SDS011;30298;52.562;13.414;2022-12-07T09:48:21;3.58;;;2.95;;
44588;SDS011;30298;52.562;13.414;2022-12-07T09:50:48;4.70;;;3.05;;
44588;SDS011;30298;52.562;13.414;2022-12-07T09:53:15;3.22;;;2.92;;
44588;SDS011;30298;52.562;13.414;2022-12-07T09:55:41;4.00;;;2.90;;
44588;SDS011;30298;52.562;13.414;2022-12-07T09:58:10;3.65;;;2.88;;
44588;SDS011;30298;52.562;13.414;2022-12-07T10:00:37;4.53;;;3.03;;
44588;SDS011;30298;52.562;13.414;2022-12-07T10:03:03;4.10;;;3.40;;
44588;SDS011;30298;52.562;13.414;2022-12-07T10:05:35;4.30;;;3.23;;
44588;SDS011;30298;52.562;13.414;2022-12-07T10:08:02;4.03;;;2.85;;
44588;SDS011;30298;52.562;13.414;2022-12-07T10:10:31;5.05;;;3.60;;
44588;SDS011;30298;52.562;13.414;2022-12-07T10:12:58;4.13;;;3.00;;
44588;SDS011;30298;52.562;13.414;2022-12-07T10:15:37;5.40;;;3.00;;
44588;SDS011;30298;52.562;13.414;2022-12-07T10:18:14;3.72;;;3.22;;
44588;SDS011;30298;52.562;13.414;2022-12-07T10:20:41;4.68;;;2.63;;
44588;SDS011;30298;52.562;13.414;2022-12-07T10:23:08;2.87;;;2.37;;
44588;SDS011;30298;52.562;13.414;2022-12-07T10:25:38;4.13;;;2.80;;
44588;SDS011;30298;52.562;13.414;2022-12-07T10:31:19;4.13;;;2.90;;
44588;SDS011;30298;52.562;13.414;2022-12-07T10:33:38;3.92;;;2.92;;
44588;SDS011;30298;52.562;13.414;2022-12-07T10:36:17;3.20;;;2.65;;
44588;SDS011;30298;52.562;13.414;2022-12-07T10:38:47;3.63;;;2.65;;
44588;SDS011;30298;52.562;13.414;2022-12-07T10:41:13;3.75;;;2.90;;
44588;SDS011;30298;52.562;13.414;2022-12-07T10:43:46;3.75;;;2.58;;
44588;SDS011;30298;52.562;13.414;2022-12-07T10:54:40;2.70;;;2.20;;
44588;SDS011;30298;52.562;13.414;2022-12-07T11:02:39;4.60;;;2.90;;
44588;SDS011;30298;52.562;13.414;2022-12-07T11:18:26;7.15;;;4.10;;
44588;SDS011;30298;52.562;13.414;2022-12-07T11:21:00;8.65;;;4.93;;
44588;SDS011;30298;52.562;13.414;2022-12-07T11:26:06;5.35;;;3.63;;
44588;SDS011;30298;52.562;13.414;2022-12-07T11:31:25;5.13;;;4.05;;
44588;SDS011;30298;52.562;13.414;2022-12-07T11:33:54;10.00;;;5.47;;
44588;SDS011;30298;52.562;13.414;2022-12-07T11:36:30;4.20;;;3.42;;
44588;SDS011;30298;52.562;13.414;2022-12-07T11:38:57;5.97;;;4.22;;
44588;SDS011;30298;52.562;13.414;2022-12-07T11:41:26;8.15;;;4.22;;
44588;SDS011;30298;52.562;13.414;2022-12-07T11:43:54;6.40;;;4.38;;
44588;SDS011;30298;52.562;13.414;2022-12-07T11:46:25;9.10;;;4.03;;
44588;SDS011;30298;52.562;13.414;2022-12-07T11:51:20;6.88;;;3.78;;
44588;SDS011;30298;52.562;13.414;2022-12-07T11:53:55;7.00;;;4.57;;
44588;SDS011;30298;52.562;13.414;2022-12-07T11:56:23;6.65;;;4.20;;
44588;SDS011;30298;52.562;13.414;2022-12-07T11:58:51;5.57;;;4.70;;
44588;SDS011;30298;52.562;13.414;2022-12-07T12:06:30;3.35;;;3.05;;
44588;SDS011;30298;52.562;13.414;2022-12-07T12:16:19;9.00;;;4.32;;
44588;SDS011;30298;52.562;13.414;2022-12-07T12:18:50;6.15;;;4.13;;
44588;SDS011;30298;52.562;13.414;2022-12-07T12:21:19;7.15;;;4.22;;
44588;SDS011;30298;52.562;13.414;2022-12-07T12:23:56;9.10;;;4.63;;
44588;SDS011;30298;52.562;13.414;2022-12-07T12:26:24;8.88;;;4.45;;
44588;SDS011;30298;52.562;13.414;2022-12-07T12:33:52;7.83;;;4.40;;
44588;SDS011;30298;52.562;13.414;2022-12-07T12:36:20;7.07;;;4.35;;
44588;SDS011;30298;52.562;13.414;2022-12-07T12:51:45;4.53;;;3.27;;
44588;SDS011;30298;52.562;13.414;2022-12-07T12:54:18;4.22;;;3.33;;
44588;SDS011;30298;52.562;13.414;2022-12-07T13:04:31;4.90;;;3.50;;
44588;SDS011;30298;52.562;13.414;2022-12-07T13:06:59;6.50;;;3.22;;
44588;SDS011;30298;52.562;13.414;2022-12-07T13:09:32;9.57;;;3.53;;
44588;SDS011;30298;52.562;13.414;2022-12-07T13:12:02;6.45;;;3.33;;
44588;SDS011;30298;52.562;13.414;2022-12-07T13:19:53;4.50;;;3.45;;
44588;SDS011;30298;52.562;13.414;2022-12-07T13:25:02;4.75;;;2.92;;
44588;SDS011;30298;52.562;13.414;2022-12-07T13:27:30;7.75;;;3.25;;
44588;SDS011;30298;52.562;13.414;2022-12-07T13:29:56;10.60;;;3.70;;
44588;SDS011;30298;52.562;13.414;2022-12-07T13:32:25;6.13;;;3.47;;
44588;SDS011;30298;52.562;13.414;2022-12-07T13:34:51;5.13;;;3.20;;
44588;SDS011;30298;52.562;13.414;2022-12-07T13:39:51;6.47;;;3.50;;
44588;SDS011;30298;52.562;13.414;2022-12-07T13:42:27;8.40;;;3.20;;
44588;SDS011;30298;52.562;13.414;2022-12-07T13:44:53;6.35;;;3.65;;
44588;SDS011;30298;52.562;13.414;2022-12-07T13:49:56;5.47;;;3.08;;
44588;SDS011;30298;52.562;13.414;2022-12-07T13:52:23;7.68;;;3.92;;
44588;SDS011;30298;52.562;13.414;2022-12-07T13:54:55;5.55;;;2.72;;
44588;SDS011;30298;52.562;13.414;2022-12-07T13:57:21;6.70;;;3.20;;
44588;SDS011;30298;52.562;13.414;2022-12-07T13:59:47;4.93;;;3.05;;
44588;SDS011;30298;52.562;13.414;2022-12-07T14:04:45;6.93;;;3.25;;
44588;SDS011;30298;52.562;13.414;2022-12-07T14:07:21;6.93;;;2.47;;
44588;SDS011;30298;52.562;13.414;2022-12-07T14:09:59;6.40;;;3.28;;
44588;SDS011;30298;52.562;13.414;2022-12-07T14:12:25;4.15;;;2.40;;
44588;SDS011;30298;52.562;13.414;2022-12-07T14:14:51;6.70;;;2.90;;
44588;SDS011;30298;52.562;13.414;2022-12-07T14:17:18;7.13;;;2.72;;
44588;SDS011;30298;52.562;13.414;2022-12-07T14:22:40;8.00;;;2.72;;
44588;SDS011;30298;52.562;13.414;2022-12-07T14:25:18;5.40;;;3.17;;
44588;SDS011;30298;52.562;13.414;2022-12-07T14:27:48;5.95;;;3.15;;
44588;SDS011;30298;52.562;13.414;2022-12-07T14:30:17;7.75;;;3.30;;
44588;SDS011;30298;52.562;13.414;2022-12-07T14:32:42;9.18;;;3.20;;
44588;SDS011;30298;52.562;13.414;2022-12-07T14:35:13;6.78;;;2.90;;
44588;SDS011;30298;52.562;13.414;2022-12-07T14:37:40;7.00;;;2.83;;
44588;SDS011;30298;52.562;13.414;2022-12-07T14:42:31;11.85;;;3.35;;
44588;SDS011;30298;52.562;13.414;2022-12-07T14:44:58;4.03;;;2.83;;
44588;SDS011;30298;52.562;13.414;2022-12-07T14:47:24;7.07;;;3.08;;
44588;SDS011;30298;52.562;13.414;2022-12-07T14:49:49;3.75;;;2.95;;
44588;SDS011;30298;52.562;13.414;2022-12-07T14:52:22;5.63;;;3.50;;
44588;SDS011;30298;52.562;13.414;2022-12-07T14:54:48;5.28;;;3.65;;
44588;SDS011;30298;52.562;13.414;2022-12-07T14:57:14;4.83;;;3.53;;
44588;SDS011;30298;52.562;13.414;2022-12-07T14:59:39;7.03;;;3.23;;
44588;SDS011;30298;52.562;13.414;2022-12-07T15:02:05;4.77;;;3.10;;
44588;SDS011;30298;52.562;13.414;2022-12-07T15:04:31;6.68;;;3.20;;
44588;SDS011;30298;52.562;13.414;2022-12-07T15:07:00;5.47;;;2.77;;
44588;SDS011;30298;52.562;13.414;2022-12-07T15:09:26;5.85;;;3.60;;
44588;SDS011;30298;52.562;13.414;2022-12-07T15:11:51;11.10;;;3.58;;
44588;SDS011;30298;52.562;13.414;2022-12-07T15:14:17;7.43;;;3.00;;
44588;SDS011;30298;52.562;13.414;2022-12-07T15:16:42;5.87;;;3.73;;
44588;SDS011;30298;52.562;13.414;2022-12-07T15:19:10;7.38;;;2.80;;
44588;SDS011;30298;52.562;13.414;2022-12-07T15:21:36;5.55;;;3.13;;
44588;SDS011;30298;52.562;13.414;2022-12-07T15:24:02;9.03;;;3.40;;
44588;SDS011;30298;52.562;13.414;2022-12-07T15:26:27;6.03;;;2.63;;
44588;SDS011;30298;52.562;13.414;2022-12-07T15:28:53;6.37;;;2.87;;
44588;SDS011;30298;52.562;13.414;2022-12-07T15:31:18;5.93;;;3.40;;
44588;SDS011;30298;52.562;13.414;2022-12-07T15:33:44;9.63;;;3.00;;
44588;SDS011;30298;52.562;13.414;2022-12-07T15:36:13;6.17;;;2.33;;
44588;SDS011;30298;52.562;13.414;2022-12-07T15:38:42;4.68;;;2.55;;
44588;SDS011;30298;52.562;13.414;2022-12-07T15:41:08;11.83;;;3.20;;
44588;SDS011;30298;52.562;13.414;2022-12-07T15:43:33;5.23;;;2.80;;
44588;SDS011;30298;52.562;13.414;2022-12-07T15:46:17;8.88;;;2.75;;
44588;SDS011;30298;52.562;13.414;2022-12-07T15:48:44;5.77;;;3.13;;
44588;SDS011;30298;52.562;13.414;2022-12-07T15:51:10;6.28;;;2.80;;
44588;SDS011;30298;52.562;13.414;2022-12-07T15:53:35;8.27;;;2.93;;
44588;SDS011;30298;52.562;13.414;2022-12-07T15:56:01;6.57;;;2.40;;
44588;SDS011;30298;52.562;13.414;2022-12-07T15:58:30;3.08;;;2.78;;
44588;SDS011;30298;52.562;13.414;2022-12-07T16:00:55;8.48;;;3.00;;
44588;SDS011;30298;52.562;13.414;2022-12-07T16:03:21;5.57;;;3.00;;
44588;SDS011;30298;52.562;13.414;2022-12-07T16:05:50;3.53;;;2.53;;
44588;SDS011;30298;52.562;13.414;2022-12-07T16:08:15;4.60;;;2.92;;
44588;SDS011;30298;52.562;13.414;2022-12-07T16:10:41;8.40;;;2.77;;
44588;SDS011;30298;52.562;13.414;2022-12-07T16:13:08;7.40;;;2.83;;
44588;SDS011;30298;52.562;13.414;2022-12-07T16:15:37;5.40;;;2.97;;
44588;SDS011;30298;52.562;13.414;2022-12-07T16:18:02;5.65;;;2.67;;
44588;SDS011;30298;52.562;13.414;2022-12-07T16:20:27;5.43;;;3.67;;
44588;SDS011;30298;52.562;13.414;2022-12-07T16:22:53;7.90;;;2.43;;
44588;SDS011;30298;52.562;13.414;2022-12-07T16:25:18;6.03;;;2.73;;
44588;SDS011;30298;52.562;13.414;2022-12-07T16:27:43;6.83;;;3.67;;
44588;SDS011;30298;52.562;13.414;2022-12-07T16:30:08;5.93;;;2.57;;
44588;SDS011;30298;52.562;13.414;2022-12-07T16:32:34;3.43;;;2.70;;
44588;SDS011;30298;52.562;13.414;2022-12-07T16:34:59;9.93;;;3.00;;
44588;SDS011;30298;52.562;13.414;2022-12-07T16:37:24;7.47;;;3.07;;
44588;SDS011;30298;52.562;13.414;2022-12-07T16:39:50;4.57;;;2.97;;